Weather at General Ignacio P. Garcia International Airport

Public forecast

Using degrees Celsius for public forecast. Weather courtesy of forecast.io.

Current aviation weather report (METAR) for General Ignacio P. Garcia International Airport

Retrieved 2020/10/19 14:45 UTC (29 minutes ago):

MMHO 191445Z 00000KT 10SM SKC 26/14 A2989 RMK SLP116 5//// 975 FULYR N AND 4TH HZY

Aviation forecast (TAF) for General Ignacio P. Garcia International Airport

Forecast is more than 12 hours old.

Retrieved 2020/10/18 18:45 UTC (20 hours ago):

TAF MMHO 181643Z 1818/1918 23005KT P6SM SKC BECMG 1820/1821 25012KT SCT220 FM190200 27005KT P6SM SCT220 BECMG 1905/1906 00000KT FM191200 05005KT P6SM SCT220